sensor_id;sensor_type;location;lat;lon;timestamp;P1;durP1;ratioP1;P2;durP2;ratioP2
2658;SDS011;1339;53.304;10.406;2022-10-31T00:02:08;20.23;;;13.77;;
2658;SDS011;1339;53.304;10.406;2022-10-31T00:04:35;14.85;;;13.05;;
2658;SDS011;1339;53.304;10.406;2022-10-31T00:07:02;17.35;;;13.70;;
2658;SDS011;1339;53.304;10.406;2022-10-31T00:09:29;17.38;;;14.63;;
2658;SDS011;1339;53.304;10.406;2022-10-31T00:11:56;12.90;;;11.63;;
2658;SDS011;1339;53.304;10.406;2022-10-31T00:14:23;17.95;;;12.63;;
2658;SDS011;1339;53.304;10.406;2022-10-31T00:16:50;14.65;;;11.88;;
2658;SDS011;1339;53.304;10.406;2022-10-31T00:19:18;14.73;;;13.20;;
2658;SDS011;1339;53.304;10.406;2022-10-31T00:21:45;14.90;;;12.38;;
2658;SDS011;1339;53.304;10.406;2022-10-31T00:24:12;14.30;;;12.82;;
2658;SDS011;1339;53.304;10.406;2022-10-31T00:26:39;15.10;;;13.50;;
2658;SDS011;1339;53.304;10.406;2022-10-31T00:29:06;14.55;;;12.32;;
2658;SDS011;1339;53.304;10.406;2022-10-31T00:31:33;17.65;;;14.35;;
2658;SDS011;1339;53.304;10.406;2022-10-31T00:34:00;13.77;;;12.43;;
2658;SDS011;1339;53.304;10.406;2022-10-31T00:36:30;16.15;;;13.88;;
2658;SDS011;1339;53.304;10.406;2022-10-31T00:38:57;16.60;;;11.68;;
2658;SDS011;1339;53.304;10.406;2022-10-31T00:41:25;17.25;;;14.00;;
2658;SDS011;1339;53.304;10.406;2022-10-31T00:43:52;15.25;;;13.63;;
2658;SDS011;1339;53.304;10.406;2022-10-31T00:46:19;17.77;;;13.60;;
2658;SDS011;1339;53.304;10.406;2022-10-31T00:48:46;15.35;;;13.38;;
2658;SDS011;1339;53.304;10.406;2022-10-31T00:51:13;13.95;;;12.55;;
2658;SDS011;1339;53.304;10.406;2022-10-31T00:53:41;13.30;;;12.10;;
2658;SDS011;1339;53.304;10.406;2022-10-31T00:56:08;12.85;;;11.20;;
2658;SDS011;1339;53.304;10.406;2022-10-31T00:58:36;17.50;;;13.63;;
2658;SDS011;1339;53.304;10.406;2022-10-31T01:01:03;13.20;;;11.90;;
2658;SDS011;1339;53.304;10.406;2022-10-31T01:03:31;13.57;;;12.07;;
2658;SDS011;1339;53.304;10.406;2022-10-31T01:05:59;15.18;;;13.63;;
2658;SDS011;1339;53.304;10.406;2022-10-31T01:08:27;14.27;;;11.88;;
2658;SDS011;1339;53.304;10.406;2022-10-31T01:11:00;19.45;;;12.20;;
2658;SDS011;1339;53.304;10.406;2022-10-31T01:13:27;18.42;;;14.88;;
2658;SDS011;1339;53.304;10.406;2022-10-31T01:15:54;14.23;;;12.80;;
2658;SDS011;1339;53.304;10.406;2022-10-31T01:18:21;15.00;;;11.23;;
2658;SDS011;1339;53.304;10.406;2022-10-31T01:20:56;16.20;;;11.80;;
2658;SDS011;1339;53.304;10.406;2022-10-31T01:23:23;12.75;;;11.60;;
2658;SDS011;1339;53.304;10.406;2022-10-31T01:25:58;16.88;;;12.52;;
2658;SDS011;1339;53.304;10.406;2022-10-31T01:28:26;12.60;;;10.43;;
2658;SDS011;1339;53.304;10.406;2022-10-31T01:30:53;12.45;;;11.15;;
2658;SDS011;1339;53.304;10.406;2022-10-31T01:33:20;13.75;;;12.18;;
2658;SDS011;1339;53.304;10.406;2022-10-31T01:35:47;16.60;;;12.05;;
2658;SDS011;1339;53.304;10.406;2022-10-31T01:38:14;11.60;;;10.52;;
2658;SDS011;1339;53.304;10.406;2022-10-31T01:40:41;12.00;;;10.82;;
2658;SDS011;1339;53.304;10.406;2022-10-31T01:43:10;11.95;;;10.48;;
2658;SDS011;1339;53.304;10.406;2022-10-31T01:45:39;13.10;;;11.75;;
2658;SDS011;1339;53.304;10.406;2022-10-31T01:48:09;12.52;;;11.32;;
2658;SDS011;1339;53.304;10.406;2022-10-31T01:50:39;11.38;;;10.20;;
2658;SDS011;1339;53.304;10.406;2022-10-31T01:53:06;12.30;;;10.38;;
2658;SDS011;1339;53.304;10.406;2022-10-31T01:55:34;12.48;;;11.23;;
2658;SDS011;1339;53.304;10.406;2022-10-31T01:58:04;13.55;;;12.27;;
2658;SDS011;1339;53.304;10.406;2022-10-31T02:00:31;11.75;;;10.48;;
2658;SDS011;1339;53.304;10.406;2022-10-31T02:02:59;11.90;;;10.80;;
2658;SDS011;1339;53.304;10.406;2022-10-31T02:05:27;13.10;;;10.85;;
2658;SDS011;1339;53.304;10.406;2022-10-31T02:07:57;12.70;;;11.05;;
2658;SDS011;1339;53.304;10.406;2022-10-31T02:10:25;15.15;;;13.52;;
2658;SDS011;1339;53.304;10.406;2022-10-31T02:12:53;12.35;;;11.05;;
2658;SDS011;1339;53.304;10.406;2022-10-31T02:15:21;14.35;;;12.95;;
2658;SDS011;1339;53.304;10.406;2022-10-31T02:17:49;15.88;;;12.63;;
2658;SDS011;1339;53.304;10.406;2022-10-31T02:20:18;12.50;;;11.40;;
2658;SDS011;1339;53.304;10.406;2022-10-31T02:22:54;13.48;;;12.07;;
2658;SDS011;1339;53.304;10.406;2022-10-31T02:25:35;18.15;;;14.15;;
2658;SDS011;1339;53.304;10.406;2022-10-31T02:28:13;18.75;;;14.32;;
2658;SDS011;1339;53.304;10.406;2022-10-31T02:31:02;20.67;;;13.35;;
2658;SDS011;1339;53.304;10.406;2022-10-31T02:33:34;17.88;;;14.90;;
2658;SDS011;1339;53.304;10.406;2022-10-31T02:36:04;15.35;;;13.70;;
2658;SDS011;1339;53.304;10.406;2022-10-31T02:38:37;18.05;;;14.05;;
2658;SDS011;1339;53.304;10.406;2022-10-31T02:41:08;15.25;;;13.60;;
2658;SDS011;1339;53.304;10.406;2022-10-31T02:43:40;14.88;;;13.45;;
2658;SDS011;1339;53.304;10.406;2022-10-31T02:46:13;20.38;;;15.20;;
2658;SDS011;1339;53.304;10.406;2022-10-31T02:48:41;23.23;;;15.38;;
2658;SDS011;1339;53.304;10.406;2022-10-31T02:51:08;20.23;;;15.07;;
2658;SDS011;1339;53.304;10.406;2022-10-31T02:53:37;21.88;;;16.50;;
2658;SDS011;1339;53.304;10.406;2022-10-31T02:56:05;17.30;;;15.60;;
2658;SDS011;1339;53.304;10.406;2022-10-31T02:58:34;23.05;;;17.95;;
2658;SDS011;1339;53.304;10.406;2022-10-31T03:01:13;26.88;;;20.10;;
2658;SDS011;1339;53.304;10.406;2022-10-31T03:03:48;26.13;;;17.98;;
2658;SDS011;1339;53.304;10.406;2022-10-31T03:06:20;20.67;;;16.85;;
2658;SDS011;1339;53.304;10.406;2022-10-31T03:08:50;23.52;;;18.58;;
2658;SDS011;1339;53.304;10.406;2022-10-31T03:11:21;21.20;;;18.33;;
2658;SDS011;1339;53.304;10.406;2022-10-31T03:13:50;19.17;;;16.98;;
2658;SDS011;1339;53.304;10.406;2022-10-31T03:16:25;19.45;;;17.45;;
2658;SDS011;1339;53.304;10.406;2022-10-31T03:18:55;29.93;;;22.30;;
2658;SDS011;1339;53.304;10.406;2022-10-31T03:21:25;27.90;;;20.80;;
2658;SDS011;1339;53.304;10.406;2022-10-31T03:23:54;28.83;;;22.85;;
2658;SDS011;1339;53.304;10.406;2022-10-31T03:26:21;34.63;;;24.88;;
2658;SDS011;1339;53.304;10.406;2022-10-31T03:28:51;43.50;;;30.25;;
2658;SDS011;1339;53.304;10.406;2022-10-31T03:31:23;38.90;;;27.98;;
2658;SDS011;1339;53.304;10.406;2022-10-31T03:33:51;41.87;;;29.83;;
2658;SDS011;1339;53.304;10.406;2022-10-31T03:36:19;43.90;;;33.40;;
2658;SDS011;1339;53.304;10.406;2022-10-31T03:38:47;45.73;;;33.30;;
2658;SDS011;1339;53.304;10.406;2022-10-31T03:41:16;47.00;;;33.27;;
2658;SDS011;1339;53.304;10.406;2022-10-31T03:43:46;54.47;;;35.03;;
2658;SDS011;1339;53.304;10.406;2022-10-31T03:46:15;46.30;;;35.30;;
2658;SDS011;1339;53.304;10.406;2022-10-31T03:48:43;43.60;;;31.50;;
2658;SDS011;1339;53.304;10.406;2022-10-31T03:51:11;44.00;;;31.40;;
2658;SDS011;1339;53.304;10.406;2022-10-31T03:53:41;58.90;;;34.97;;
2658;SDS011;1339;53.304;10.406;2022-10-31T03:56:12;64.13;;;33.03;;
2658;SDS011;1339;53.304;10.406;2022-10-31T03:58:45;51.73;;;34.90;;
2658;SDS011;1339;53.304;10.406;2022-10-31T04:01:15;41.37;;;31.20;;
2658;SDS011;1339;53.304;10.406;2022-10-31T04:03:44;42.47;;;31.17;;
2658;SDS011;1339;53.304;10.406;2022-10-31T04:06:12;45.00;;;31.33;;
2658;SDS011;1339;53.304;10.406;2022-10-31T04:08:41;53.43;;;32.97;;
2658;SDS011;1339;53.304;10.406;2022-10-31T04:11:09;55.43;;;33.67;;
2658;SDS011;1339;53.304;10.406;2022-10-31T04:13:38;44.23;;;33.20;;
2658;SDS011;1339;53.304;10.406;2022-10-31T04:16:06;45.20;;;32.03;;
2658;SDS011;1339;53.304;10.406;2022-10-31T04:18:34;43.83;;;31.63;;
2658;SDS011;1339;53.304;10.406;2022-10-31T04:21:03;47.10;;;31.43;;
2658;SDS011;1339;53.304;10.406;2022-10-31T04:23:31;42.50;;;32.37;;
2658;SDS011;1339;53.304;10.406;2022-10-31T04:25:59;44.00;;;30.80;;
2658;SDS011;1339;53.304;10.406;2022-10-31T04:28:26;41.43;;;29.90;;
2658;SDS011;1339;53.304;10.406;2022-10-31T04:30:53;40.17;;;31.10;;
2658;SDS011;1339;53.304;10.406;2022-10-31T04:33:20;41.17;;;31.27;;
2658;SDS011;1339;53.304;10.406;2022-10-31T04:35:47;39.20;;;30.87;;
2658;SDS011;1339;53.304;10.406;2022-10-31T04:38:15;44.00;;;29.87;;
2658;SDS011;1339;53.304;10.406;2022-10-31T04:40:42;38.07;;;27.93;;
2658;SDS011;1339;53.304;10.406;2022-10-31T04:43:09;36.33;;;27.43;;
2658;SDS011;1339;53.304;10.406;2022-10-31T04:45:36;35.23;;;25.73;;
2658;SDS011;1339;53.304;10.406;2022-10-31T04:48:04;36.70;;;27.50;;
2658;SDS011;1339;53.304;10.406;2022-10-31T04:50:31;31.87;;;26.33;;
2658;SDS011;1339;53.304;10.406;2022-10-31T04:52:58;31.20;;;24.50;;
2658;SDS011;1339;53.304;10.406;2022-10-31T04:55:26;39.37;;;26.53;;
2658;SDS011;1339;53.304;10.406;2022-10-31T04:57:53;31.07;;;24.23;;
2658;SDS011;1339;53.304;10.406;2022-10-31T05:00:21;31.83;;;24.87;;
2658;SDS011;1339;53.304;10.406;2022-10-31T05:02:49;29.13;;;23.90;;
2658;SDS011;1339;53.304;10.406;2022-10-31T05:05:17;31.53;;;24.13;;
2658;SDS011;1339;53.304;10.406;2022-10-31T05:07:45;40.63;;;26.60;;
2658;SDS011;1339;53.304;10.406;2022-10-31T05:10:13;35.20;;;25.53;;
2658;SDS011;1339;53.304;10.406;2022-10-31T05:12:46;42.60;;;27.70;;
2658;SDS011;1339;53.304;10.406;2022-10-31T05:15:13;30.50;;;23.73;;
2658;SDS011;1339;53.304;10.406;2022-10-31T05:17:41;40.30;;;27.40;;
2658;SDS011;1339;53.304;10.406;2022-10-31T05:20:08;35.90;;;27.73;;
2658;SDS011;1339;53.304;10.406;2022-10-31T05:22:35;35.70;;;26.23;;
2658;SDS011;1339;53.304;10.406;2022-10-31T05:25:03;42.77;;;29.10;;
2658;SDS011;1339;53.304;10.406;2022-10-31T05:27:30;44.43;;;29.80;;
2658;SDS011;1339;53.304;10.406;2022-10-31T05:29:58;47.80;;;31.73;;
2658;SDS011;1339;53.304;10.406;2022-10-31T05:32:25;43.07;;;31.87;;
2658;SDS011;1339;53.304;10.406;2022-10-31T05:34:54;45.87;;;29.67;;
2658;SDS011;1339;53.304;10.406;2022-10-31T05:37:21;49.17;;;29.93;;
2658;SDS011;1339;53.304;10.406;2022-10-31T05:39:48;47.87;;;32.50;;
2658;SDS011;1339;53.304;10.406;2022-10-31T05:42:15;53.60;;;31.93;;
2658;SDS011;1339;53.304;10.406;2022-10-31T05:44:42;39.97;;;29.13;;
2658;SDS011;1339;53.304;10.406;2022-10-31T05:47:11;42.23;;;32.27;;
2658;SDS011;1339;53.304;10.406;2022-10-31T05:49:38;45.73;;;31.10;;
2658;SDS011;1339;53.304;10.406;2022-10-31T05:52:05;44.57;;;31.00;;
2658;SDS011;1339;53.304;10.406;2022-10-31T05:54:32;42.73;;;30.20;;
2658;SDS011;1339;53.304;10.406;2022-10-31T05:56:59;48.90;;;34.40;;
2658;SDS011;1339;53.304;10.406;2022-10-31T05:59:26;48.07;;;32.70;;
2658;SDS011;1339;53.304;10.406;2022-10-31T06:01:53;50.00;;;30.27;;
2658;SDS011;1339;53.304;10.406;2022-10-31T06:04:22;47.90;;;32.43;;
2658;SDS011;1339;53.304;10.406;2022-10-31T06:06:49;42.93;;;31.30;;
2658;SDS011;1339;53.304;10.406;2022-10-31T06:09:16;44.30;;;28.83;;
2658;SDS011;1339;53.304;10.406;2022-10-31T06:11:43;42.40;;;29.23;;
2658;SDS011;1339;53.304;10.406;2022-10-31T06:14:10;39.87;;;26.70;;
2658;SDS011;1339;53.304;10.406;2022-10-31T06:16:37;44.27;;;30.63;;
2658;SDS011;1339;53.304;10.406;2022-10-31T06:19:04;45.60;;;31.23;;
2658;SDS011;1339;53.304;10.406;2022-10-31T06:21:32;49.87;;;30.93;;
2658;SDS011;1339;53.304;10.406;2022-10-31T06:23:59;43.27;;;28.10;;
2658;SDS011;1339;53.304;10.406;2022-10-31T06:26:27;37.50;;;27.73;;
2658;SDS011;1339;53.304;10.406;2022-10-31T06:28:54;41.57;;;26.97;;
2658;SDS011;1339;53.304;10.406;2022-10-31T06:31:21;42.27;;;29.53;;
2658;SDS011;1339;53.304;10.406;2022-10-31T06:33:48;46.60;;;29.30;;
2658;SDS011;1339;53.304;10.406;2022-10-31T06:36:15;42.50;;;28.77;;
2658;SDS011;1339;53.304;10.406;2022-10-31T06:38:43;38.43;;;27.63;;
2658;SDS011;1339;53.304;10.406;2022-10-31T06:41:10;38.87;;;27.60;;
2658;SDS011;1339;53.304;10.406;2022-10-31T06:43:37;40.40;;;26.50;;
2658;SDS011;1339;53.304;10.406;2022-10-31T06:46:04;41.70;;;28.40;;
2658;SDS011;1339;53.304;10.406;2022-10-31T06:48:32;43.80;;;29.47;;
2658;SDS011;1339;53.304;10.406;2022-10-31T06:50:59;35.90;;;28.03;;
2658;SDS011;1339;53.304;10.406;2022-10-31T06:53:26;44.13;;;26.70;;
2658;SDS011;1339;53.304;10.406;2022-10-31T06:55:56;37.67;;;28.30;;
2658;SDS011;1339;53.304;10.406;2022-10-31T06:58:23;43.40;;;28.23;;
2658;SDS011;1339;53.304;10.406;2022-10-31T07:00:50;40.80;;;27.70;;
2658;SDS011;1339;53.304;10.406;2022-10-31T07:03:17;40.40;;;25.63;;
2658;SDS011;1339;53.304;10.406;2022-10-31T07:05:45;44.93;;;28.27;;
2658;SDS011;1339;53.304;10.406;2022-10-31T07:08:12;37.70;;;25.13;;
2658;SDS011;1339;53.304;10.406;2022-10-31T07:10:41;32.20;;;24.63;;
2658;SDS011;1339;53.304;10.406;2022-10-31T07:13:11;36.47;;;25.40;;
2658;SDS011;1339;53.304;10.406;2022-10-31T07:15:39;37.93;;;25.90;;
2658;SDS011;1339;53.304;10.406;2022-10-31T07:18:07;36.50;;;24.47;;
2658;SDS011;1339;53.304;10.406;2022-10-31T07:20:35;42.90;;;26.33;;
2658;SDS011;1339;53.304;10.406;2022-10-31T07:23:02;34.67;;;23.60;;
2658;SDS011;1339;53.304;10.406;2022-10-31T07:25:29;37.13;;;24.07;;
2658;SDS011;1339;53.304;10.406;2022-10-31T07:27:56;35.20;;;22.30;;
2658;SDS011;1339;53.304;10.406;2022-10-31T07:30:25;36.00;;;24.60;;
2658;SDS011;1339;53.304;10.406;2022-10-31T07:32:52;32.10;;;24.10;;
2658;SDS011;1339;53.304;10.406;2022-10-31T07:35:20;44.80;;;26.63;;
2658;SDS011;1339;53.304;10.406;2022-10-31T07:37:48;40.67;;;24.33;;
2658;SDS011;1339;53.304;10.406;2022-10-31T07:40:15;36.87;;;23.90;;
2658;SDS011;1339;53.304;10.406;2022-10-31T07:42:43;31.77;;;22.37;;
2658;SDS011;1339;53.304;10.406;2022-10-31T07:45:11;42.57;;;25.03;;
2658;SDS011;1339;53.304;10.406;2022-10-31T07:47:40;31.70;;;21.30;;
2658;SDS011;1339;53.304;10.406;2022-10-31T07:50:07;33.60;;;23.17;;
2658;SDS011;1339;53.304;10.406;2022-10-31T07:52:35;38.27;;;23.53;;
2658;SDS011;1339;53.304;10.406;2022-10-31T07:55:02;35.13;;;23.30;;
2658;SDS011;1339;53.304;10.406;2022-10-31T07:57:29;37.23;;;23.40;;
2658;SDS011;1339;53.304;10.406;2022-10-31T07:59:56;41.77;;;26.80;;
2658;SDS011;1339;53.304;10.406;2022-10-31T08:02:23;31.93;;;19.90;;
2658;SDS011;1339;53.304;10.406;2022-10-31T08:04:52;31.40;;;20.87;;
2658;SDS011;1339;53.304;10.406;2022-10-31T08:07:19;30.33;;;20.40;;
2658;SDS011;1339;53.304;10.406;2022-10-31T08:09:47;29.83;;;20.47;;
2658;SDS011;1339;53.304;10.406;2022-10-31T08:12:14;37.00;;;22.73;;
2658;SDS011;1339;53.304;10.406;2022-10-31T08:14:41;36.60;;;19.53;;
2658;SDS011;1339;53.304;10.406;2022-10-31T08:17:09;31.53;;;20.30;;
2658;SDS011;1339;53.304;10.406;2022-10-31T08:19:36;29.73;;;18.83;;
2658;SDS011;1339;53.304;10.406;2022-10-31T08:22:04;35.13;;;19.00;;
2658;SDS011;1339;53.304;10.406;2022-10-31T08:24:31;29.03;;;20.10;;
2658;SDS011;1339;53.304;10.406;2022-10-31T08:26:58;42.33;;;21.07;;
2658;SDS011;1339;53.304;10.406;2022-10-31T08:29:25;27.43;;;17.77;;
2658;SDS011;1339;53.304;10.406;2022-10-31T08:31:52;28.43;;;18.23;;
2658;SDS011;1339;53.304;10.406;2022-10-31T08:34:20;30.93;;;17.97;;
2658;SDS011;1339;53.304;10.406;2022-10-31T08:36:47;29.67;;;19.20;;
2658;SDS011;1339;53.304;10.406;2022-10-31T08:39:15;27.77;;;18.47;;
2658;SDS011;1339;53.304;10.406;2022-10-31T08:41:42;27.03;;;18.33;;
2658;SDS011;1339;53.304;10.406;2022-10-31T08:44:09;27.10;;;16.47;;
2658;SDS011;1339;53.304;10.406;2022-10-31T08:46:37;25.17;;;17.53;;
2658;SDS011;1339;53.304;10.406;2022-10-31T08:49:04;25.97;;;16.83;;
2658;SDS011;1339;53.304;10.406;2022-10-31T08:51:31;26.37;;;16.80;;
2658;SDS011;1339;53.304;10.406;2022-10-31T08:53:58;26.53;;;15.80;;
2658;SDS011;1339;53.304;10.406;2022-10-31T08:56:26;22.53;;;15.00;;
2658;SDS011;1339;53.304;10.406;2022-10-31T08:58:53;24.00;;;17.60;;
2658;SDS011;1339;53.304;10.406;2022-10-31T09:01:20;31.70;;;19.03;;
2658;SDS011;1339;53.304;10.406;2022-10-31T09:03:47;23.30;;;15.67;;
2658;SDS011;1339;53.304;10.406;2022-10-31T09:06:14;22.10;;;15.30;;
2658;SDS011;1339;53.304;10.406;2022-10-31T09:08:41;24.70;;;16.57;;
2658;SDS011;1339;53.304;10.406;2022-10-31T09:11:08;31.60;;;19.17;;
2658;SDS011;1339;53.304;10.406;2022-10-31T09:13:37;27.63;;;17.60;;
2658;SDS011;1339;53.304;10.406;2022-10-31T09:16:04;26.50;;;16.63;;
2658;SDS011;1339;53.304;10.406;2022-10-31T09:18:31;29.70;;;17.73;;
2658;SDS011;1339;53.304;10.406;2022-10-31T09:20:59;20.03;;;15.27;;
2658;SDS011;1339;53.304;10.406;2022-10-31T09:23:26;22.70;;;16.20;;
2658;SDS011;1339;53.304;10.406;2022-10-31T09:25:54;24.80;;;17.00;;
2658;SDS011;1339;53.304;10.406;2022-10-31T09:28:22;22.00;;;16.37;;
2658;SDS011;1339;53.304;10.406;2022-10-31T09:30:51;24.17;;;17.50;;
2658;SDS011;1339;53.304;10.406;2022-10-31T09:33:18;26.67;;;16.70;;
2658;SDS011;1339;53.304;10.406;2022-10-31T09:35:45;25.20;;;17.07;;
2658;SDS011;1339;53.304;10.406;2022-10-31T09:38:13;21.17;;;15.40;;
2658;SDS011;1339;53.304;10.406;2022-10-31T09:40:41;24.60;;;16.03;;
2658;SDS011;1339;53.304;10.406;2022-10-31T09:43:13;22.73;;;15.20;;
2658;SDS011;1339;53.304;10.406;2022-10-31T09:45:43;24.13;;;15.70;;
2658;SDS011;1339;53.304;10.406;2022-10-31T09:48:20;22.70;;;17.13;;
2658;SDS011;1339;53.304;10.406;2022-10-31T09:50:51;22.90;;;14.57;;
2658;SDS011;1339;53.304;10.406;2022-10-31T09:53:22;24.10;;;16.50;;
2658;SDS011;1339;53.304;10.406;2022-10-31T09:55:49;21.93;;;14.20;;
2658;SDS011;1339;53.304;10.406;2022-10-31T09:58:18;22.40;;;15.07;;
2658;SDS011;1339;53.304;10.406;2022-10-31T10:00:46;20.40;;;15.53;;
2658;SDS011;1339;53.304;10.406;2022-10-31T10:03:17;21.90;;;15.10;;
2658;SDS011;1339;53.304;10.406;2022-10-31T10:05:49;21.50;;;15.23;;
2658;SDS011;1339;53.304;10.406;2022-10-31T10:08:19;23.50;;;14.60;;
2658;SDS011;1339;53.304;10.406;2022-10-31T10:10:48;17.43;;;12.73;;
2658;SDS011;1339;53.304;10.406;2022-10-31T10:16:00;21.00;;;13.73;;
2658;SDS011;1339;53.304;10.406;2022-10-31T10:18:32;18.43;;;12.67;;
2658;SDS011;1339;53.304;10.406;2022-10-31T10:21:05;16.43;;;11.70;;
2658;SDS011;1339;53.304;10.406;2022-10-31T10:23:39;16.80;;;11.60;;
2658;SDS011;1339;53.304;10.406;2022-10-31T10:26:12;15.70;;;12.87;;
2658;SDS011;1339;53.304;10.406;2022-10-31T10:28:40;16.90;;;13.30;;
2658;SDS011;1339;53.304;10.406;2022-10-31T10:31:11;14.83;;;11.57;;
2658;SDS011;1339;53.304;10.406;2022-10-31T10:33:39;17.03;;;13.57;;
2658;SDS011;1339;53.304;10.406;2022-10-31T10:36:10;17.40;;;12.70;;
2658;SDS011;1339;53.304;10.406;2022-10-31T10:38:40;19.60;;;15.80;;
2658;SDS011;1339;53.304;10.406;2022-10-31T10:41:12;23.43;;;13.23;;
2658;SDS011;1339;53.304;10.406;2022-10-31T10:43:40;16.30;;;12.80;;
2658;SDS011;1339;53.304;10.406;2022-10-31T10:46:17;19.10;;;13.63;;
2658;SDS011;1339;53.304;10.406;2022-10-31T10:49:06;14.20;;;11.23;;
2658;SDS011;1339;53.304;10.406;2022-10-31T10:51:37;21.83;;;15.10;;
2658;SDS011;1339;53.304;10.406;2022-10-31T10:54:12;17.43;;;11.63;;
2658;SDS011;1339;53.304;10.406;2022-10-31T10:56:43;16.87;;;12.70;;
2658;SDS011;1339;53.304;10.406;2022-10-31T10:59:13;13.43;;;10.70;;
2658;SDS011;1339;53.304;10.406;2022-10-31T11:01:40;12.93;;;10.13;;
2658;SDS011;1339;53.304;10.406;2022-10-31T11:04:24;18.00;;;10.90;;
2658;SDS011;1339;53.304;10.406;2022-10-31T11:07:00;15.23;;;12.10;;
2658;SDS011;1339;53.304;10.406;2022-10-31T11:09:28;15.33;;;12.80;;
2658;SDS011;1339;53.304;10.406;2022-10-31T11:11:55;15.33;;;11.47;;
2658;SDS011;1339;53.304;10.406;2022-10-31T11:14:22;13.30;;;10.97;;
2658;SDS011;1339;53.304;10.406;2022-10-31T11:16:51;14.13;;;10.63;;
2658;SDS011;1339;53.304;10.406;2022-10-31T11:19:19;10.27;;;9.13;;
2658;SDS011;1339;53.304;10.406;2022-10-31T11:21:47;10.23;;;9.23;;
2658;SDS011;1339;53.304;10.406;2022-10-31T11:24:16;11.73;;;8.50;;
2658;SDS011;1339;53.304;10.406;2022-10-31T11:26:45;11.40;;;8.90;;
2658;SDS011;1339;53.304;10.406;2022-10-31T11:29:13;10.23;;;8.30;;
2658;SDS011;1339;53.304;10.406;2022-10-31T11:31:40;10.67;;;7.67;;
2658;SDS011;1339;53.304;10.406;2022-10-31T11:34:12;14.90;;;8.10;;
2658;SDS011;1339;53.304;10.406;2022-10-31T11:36:42;14.17;;;9.00;;
2658;SDS011;1339;53.304;10.406;2022-10-31T11:39:13;10.20;;;8.17;;
2658;SDS011;1339;53.304;10.406;2022-10-31T11:41:43;9.90;;;8.20;;
2658;SDS011;1339;53.304;10.406;2022-10-31T11:44:11;12.30;;;7.77;;
2658;SDS011;1339;53.304;10.406;2022-10-31T11:46:41;10.03;;;8.90;;
2658;SDS011;1339;53.304;10.406;2022-10-31T11:49:12;10.97;;;8.03;;
2658;SDS011;1339;53.304;10.406;2022-10-31T11:51:40;11.30;;;7.43;;
2658;SDS011;1339;53.304;10.406;2022-10-31T11:54:14;9.77;;;8.13;;
2658;SDS011;1339;53.304;10.406;2022-10-31T11:56:44;8.17;;;7.40;;
2658;SDS011;1339;53.304;10.406;2022-10-31T11:59:15;7.90;;;7.07;;
2658;SDS011;1339;53.304;10.406;2022-10-31T12:01:46;10.37;;;6.20;;
2658;SDS011;1339;53.304;10.406;2022-10-31T12:04:14;10.90;;;8.20;;
2658;SDS011;1339;53.304;10.406;2022-10-31T12:06:42;10.37;;;8.83;;
2658;SDS011;1339;53.304;10.406;2022-10-31T12:09:16;11.73;;;8.73;;
2658;SDS011;1339;53.304;10.406;2022-10-31T12:11:49;16.90;;;9.73;;
2658;SDS011;1339;53.304;10.406;2022-10-31T12:14:24;15.73;;;9.37;;
2658;SDS011;1339;53.304;10.406;2022-10-31T12:16:55;12.00;;;8.70;;
2658;SDS011;1339;53.304;10.406;2022-10-31T12:19:26;10.80;;;9.03;;
2658;SDS011;1339;53.304;10.406;2022-10-31T12:21:58;15.33;;;9.10;;
2658;SDS011;1339;53.304;10.406;2022-10-31T12:24:32;11.40;;;9.20;;
2658;SDS011;1339;53.304;10.406;2022-10-31T12:27:08;18.77;;;11.53;;
2658;SDS011;1339;53.304;10.406;2022-10-31T12:29:48;17.67;;;11.37;;
2658;SDS011;1339;53.304;10.406;2022-10-31T12:32:24;13.33;;;10.30;;
2658;SDS011;1339;53.304;10.406;2022-10-31T12:37:43;10.50;;;7.90;;
2658;SDS011;1339;53.304;10.406;2022-10-31T12:40:21;9.83;;;5.50;;
2658;SDS011;1339;53.304;10.406;2022-10-31T12:42:56;7.17;;;6.47;;
2658;SDS011;1339;53.304;10.406;2022-10-31T12:45:29;6.27;;;5.67;;
2658;SDS011;1339;53.304;10.406;2022-10-31T12:48:04;8.10;;;7.30;;
2658;SDS011;1339;53.304;10.406;2022-10-31T12:50:45;8.50;;;7.33;;
2658;SDS011;1339;53.304;10.406;2022-10-31T12:53:20;6.93;;;5.73;;
2658;SDS011;1339;53.304;10.406;2022-10-31T12:55:55;10.97;;;6.03;;
2658;SDS011;1339;53.304;10.406;2022-10-31T12:58:28;6.30;;;5.70;;
2658;SDS011;1339;53.304;10.406;2022-10-31T13:00:58;6.70;;;5.17;;
2658;SDS011;1339;53.304;10.406;2022-10-31T13:03:30;8.93;;;4.50;;
2658;SDS011;1339;53.304;10.406;2022-10-31T13:06:02;22.03;;;14.63;;
2658;SDS011;1339;53.304;10.406;2022-10-31T13:08:31;17.70;;;10.40;;
2658;SDS011;1339;53.304;10.406;2022-10-31T13:11:02;11.40;;;6.00;;
2658;SDS011;1339;53.304;10.406;2022-10-31T13:13:35;5.97;;;5.37;;
2658;SDS011;1339;53.304;10.406;2022-10-31T13:16:03;5.20;;;4.70;;
2658;SDS011;1339;53.304;10.406;2022-10-31T13:18:32;5.97;;;4.40;;
2658;SDS011;1339;53.304;10.406;2022-10-31T13:21:01;5.30;;;4.80;;
2658;SDS011;1339;53.304;10.406;2022-10-31T13:23:31;5.50;;;5.00;;
2658;SDS011;1339;53.304;10.406;2022-10-31T13:25:59;8.27;;;6.03;;
2658;SDS011;1339;53.304;10.406;2022-10-31T13:28:29;6.27;;;4.90;;
2658;SDS011;1339;53.304;10.406;2022-10-31T13:30:58;10.27;;;5.23;;
2658;SDS011;1339;53.304;10.406;2022-10-31T13:33:25;4.87;;;4.17;;
2658;SDS011;1339;53.304;10.406;2022-10-31T13:35:55;5.70;;;5.20;;
2658;SDS011;1339;53.304;10.406;2022-10-31T13:38:27;4.10;;;3.80;;
2658;SDS011;1339;53.304;10.406;2022-10-31T13:40:59;5.43;;;3.63;;
2658;SDS011;1339;53.304;10.406;2022-10-31T13:43:30;5.40;;;4.70;;
2658;SDS011;1339;53.304;10.406;2022-10-31T13:45:59;9.57;;;7.17;;
2658;SDS011;1339;53.304;10.406;2022-10-31T13:48:37;9.90;;;7.10;;
2658;SDS011;1339;53.304;10.406;2022-10-31T13:51:06;14.87;;;8.70;;
2658;SDS011;1339;53.304;10.406;2022-10-31T13:53:35;12.17;;;10.23;;
2658;SDS011;1339;53.304;10.406;2022-10-31T13:56:03;13.00;;;9.27;;
2658;SDS011;1339;53.304;10.406;2022-10-31T13:58:30;12.33;;;9.03;;
2658;SDS011;1339;53.304;10.406;2022-10-31T14:01:01;10.37;;;8.33;;
2658;SDS011;1339;53.304;10.406;2022-10-31T14:03:30;9.70;;;7.70;;
2658;SDS011;1339;53.304;10.406;2022-10-31T14:05:59;9.07;;;8.00;;
2658;SDS011;1339;53.304;10.406;2022-10-31T14:08:26;9.83;;;6.47;;
2658;SDS011;1339;53.304;10.406;2022-10-31T14:10:54;16.13;;;9.43;;
2658;SDS011;1339;53.304;10.406;2022-10-31T14:13:24;8.70;;;7.80;;
2658;SDS011;1339;53.304;10.406;2022-10-31T14:15:54;9.17;;;6.80;;
2658;SDS011;1339;53.304;10.406;2022-10-31T14:18:24;8.57;;;5.87;;
2658;SDS011;1339;53.304;10.406;2022-10-31T14:20:51;4.97;;;4.43;;
2658;SDS011;1339;53.304;10.406;2022-10-31T14:23:30;6.27;;;4.60;;
2658;SDS011;1339;53.304;10.406;2022-10-31T14:26:16;4.97;;;4.47;;
2658;SDS011;1339;53.304;10.406;2022-10-31T14:28:43;9.40;;;4.37;;
2658;SDS011;1339;53.304;10.406;2022-10-31T14:31:21;4.63;;;4.00;;
2658;SDS011;1339;53.304;10.406;2022-10-31T14:33:52;5.03;;;4.53;;
2658;SDS011;1339;53.304;10.406;2022-10-31T14:36:21;5.60;;;4.40;;
2658;SDS011;1339;53.304;10.406;2022-10-31T14:38:52;9.53;;;5.27;;
2658;SDS011;1339;53.304;10.406;2022-10-31T14:41:34;7.90;;;4.60;;
2658;SDS011;1339;53.304;10.406;2022-10-31T14:44:10;6.90;;;5.03;;
2658;SDS011;1339;53.304;10.406;2022-10-31T14:46:43;9.40;;;5.20;;
2658;SDS011;1339;53.304;10.406;2022-10-31T14:49:18;5.40;;;4.90;;
2658;SDS011;1339;53.304;10.406;2022-10-31T14:51:49;7.20;;;5.50;;
2658;SDS011;1339;53.304;10.406;2022-10-31T14:54:18;9.17;;;6.60;;
2658;SDS011;1339;53.304;10.406;2022-10-31T14:56:48;6.43;;;5.27;;